createdAt,value
2018-03-02T00:01:59.493Z,-7.90
2018-03-02T00:04:29.155Z,-8.10
2018-03-02T00:06:57.450Z,-7.80
2018-03-02T00:09:25.686Z,-7.80
2018-03-02T00:11:53.846Z,-8.10
2018-03-02T00:14:22.013Z,-8.10
2018-03-02T00:16:50.158Z,-7.70
2018-03-02T00:19:18.309Z,-8.10
2018-03-02T00:21:46.452Z,-8.30
2018-03-02T00:24:14.633Z,-8.40
2018-03-02T00:26:42.785Z,-8.20
2018-03-02T00:29:10.927Z,-8.40
2018-03-02T00:31:39.864Z,-8.30
2018-03-02T00:34:08.011Z,-8.50
2018-03-02T00:36:36.206Z,-8.60
2018-03-02T00:39:04.370Z,-8.40
2018-03-02T00:41:32.517Z,-8.30
2018-03-02T00:44:01.439Z,-8.70
2018-03-02T00:46:29.714Z,-8.60
2018-03-02T00:48:57.854Z,-8.90
2018-03-02T00:51:26.771Z,-8.70
2018-03-02T00:53:54.950Z,-8.30
2018-03-02T00:56:23.105Z,-8.30
2018-03-02T00:58:51.312Z,-8.40
2018-03-02T01:01:19.480Z,-8.50
2018-03-02T01:03:47.640Z,-8.50
2018-03-02T01:06:15.781Z,-8.10
2018-03-02T01:08:44.722Z,-8.30
2018-03-02T01:11:12.861Z,-8.10
2018-03-02T01:13:41.011Z,-8.80
2018-03-02T01:16:09.946Z,-8.40
2018-03-02T01:18:38.090Z,-8.40
2018-03-02T01:21:06.287Z,-8.30
2018-03-02T01:23:34.873Z,-8.20
2018-03-02T01:26:03.014Z,-8.60
2018-03-02T01:28:31.394Z,-8.50
2018-03-02T01:30:59.534Z,-8.50
2018-03-02T01:33:27.674Z,-8.70
2018-03-02T01:35:55.851Z,-8.60
2018-03-02T01:38:24.006Z,-8.60
2018-03-02T01:40:52.158Z,-8.90
2018-03-02T01:43:20.325Z,-8.50
2018-03-02T01:45:48.480Z,-8.30
2018-03-02T01:48:16.698Z,-8.80
2018-03-02T01:50:44.873Z,-8.40
2018-03-02T01:53:13.015Z,-8.40
2018-03-02T01:55:41.928Z,-8.60
2018-03-02T01:58:10.110Z,-9.00
2018-03-02T02:00:38.253Z,-8.50
2018-03-02T02:03:06.409Z,-8.70
2018-03-02T02:05:35.442Z,-9.00
2018-03-02T02:08:03.674Z,-8.80
2018-03-02T02:10:31.822Z,-9.10
2018-03-02T02:12:59.986Z,-8.90
2018-03-02T02:15:28.131Z,-8.60
2018-03-02T02:17:56.270Z,-8.50
2018-03-02T02:20:25.230Z,-8.90
2018-03-02T02:22:53.368Z,-9.00
2018-03-02T02:25:21.542Z,-8.90
2018-03-02T02:27:49.722Z,-8.90
2018-03-02T02:30:17.903Z,-9.20
2018-03-02T02:32:46.048Z,-9.10
2018-03-02T02:35:14.183Z,-8.90
2018-03-02T02:37:43.120Z,-9.30
2018-03-02T02:40:11.304Z,-9.20
2018-03-02T02:42:39.450Z,-9.70
2018-03-02T02:45:07.614Z,-9.60
2018-03-02T02:47:36.121Z,-9.40
2018-03-02T02:50:04.265Z,-9.30
2018-03-02T02:52:33.181Z,-9.50
2018-03-02T02:55:02.094Z,-9.30
2018-03-02T02:57:30.239Z,-8.70
2018-03-02T02:59:58.425Z,-9.20
2018-03-02T03:02:26.605Z,-9.10
2018-03-02T03:04:54.766Z,-9.40
2018-03-02T03:07:22.913Z,-9.70
2018-03-02T03:09:51.935Z,-9.00
2018-03-02T03:12:20.085Z,-9.00
2018-03-02T03:14:48.249Z,-9.30
2018-03-02T03:17:17.162Z,-9.30
2018-03-02T03:19:45.357Z,-9.30
2018-03-02T03:22:13.529Z,-9.60
2018-03-02T03:24:41.679Z,-9.10
2018-03-02T03:27:09.825Z,-8.90
2018-03-02T03:29:38.754Z,-9.10
2018-03-02T03:32:06.890Z,-9.40
2018-03-02T03:34:35.818Z,-9.30
2018-03-02T03:37:03.993Z,-9.20
2018-03-02T03:39:32.160Z,-9.70
2018-03-02T03:42:00.336Z,-9.70
2018-03-02T03:44:28.477Z,-9.10
2018-03-02T03:46:56.650Z,-9.10
2018-03-02T03:49:24.793Z,-9.30
2018-03-02T03:51:52.934Z,-9.40
2018-03-02T03:54:21.194Z,-9.70
2018-03-02T03:56:49.337Z,-9.40
2018-03-02T03:59:18.269Z,-9.80
2018-03-02T04:01:46.406Z,-9.20
2018-03-02T04:04:14.546Z,-9.40
2018-03-02T04:06:42.702Z,-9.30
2018-03-02T04:09:10.846Z,-9.30
2018-03-02T04:11:39.009Z,-9.20
2018-03-02T04:14:07.174Z,-9.40
2018-03-02T04:16:35.318Z,-9.50
2018-03-02T04:19:04.235Z,-9.50
2018-03-02T04:21:32.409Z,-9.10
2018-03-02T04:24:00.554Z,-9.10
2018-03-02T04:26:29.488Z,-9.30
2018-03-02T04:28:57.660Z,-9.70
2018-03-02T04:31:25.806Z,-10.00
2018-03-02T04:33:54.013Z,-9.70
2018-03-02T04:36:22.176Z,-9.90
2018-03-02T04:38:50.357Z,-9.90
2018-03-02T04:41:18.497Z,-9.80
2018-03-02T04:43:47.454Z,-9.60
2018-03-02T04:46:15.589Z,-9.30
2018-03-02T04:48:43.732Z,-9.30
2018-03-02T04:51:12.696Z,-9.30
2018-03-02T04:53:40.850Z,-9.60
2018-03-02T04:56:09.102Z,-9.40
2018-03-02T04:58:37.284Z,-9.90
2018-03-02T05:01:05.440Z,-9.60
2018-03-02T05:03:33.582Z,-9.50
2018-03-02T05:06:02.546Z,-9.60
2018-03-02T05:08:30.693Z,-9.50
2018-03-02T05:10:58.825Z,-9.20
2018-03-02T05:13:26.981Z,-9.20
2018-03-02T05:15:55.910Z,-9.50
2018-03-02T05:18:24.094Z,-9.30
2018-03-02T05:20:52.242Z,-10.00
2018-03-02T05:23:20.390Z,-10.20
2018-03-02T05:25:48.710Z,-9.80
2018-03-02T05:28:16.853Z,-9.50
2018-03-02T05:30:45.838Z,-9.80
2018-03-02T05:33:14.750Z,-9.30
2018-03-02T05:35:42.891Z,-9.60
2018-03-02T05:38:11.851Z,-9.60
2018-03-02T05:40:40.032Z,-9.50
2018-03-02T05:43:08.291Z,-9.40
2018-03-02T05:45:36.449Z,-9.60
2018-03-02T05:48:04.590Z,-9.60
2018-03-02T05:50:32.752Z,-9.60
2018-03-02T05:53:01.666Z,-10.10
2018-03-02T05:55:29.831Z,-10.00
2018-03-02T05:57:58.035Z,-9.60
2018-03-02T06:00:26.178Z,-9.80
2018-03-02T06:02:54.342Z,-9.50
2018-03-02T06:05:23.261Z,-9.90
2018-03-02T06:07:51.402Z,-9.50
2018-03-02T06:10:20.337Z,-9.40
2018-03-02T06:12:48.480Z,-10.10
2018-03-02T06:15:16.822Z,-9.70
2018-03-02T06:17:45.077Z,-9.90
2018-03-02T06:20:13.213Z,-9.90
2018-03-02T06:22:41.402Z,-9.80
2018-03-02T06:25:09.541Z,-9.60
2018-03-02T06:27:37.686Z,-9.70
2018-03-02T06:30:05.825Z,-9.70
2018-03-02T06:32:34.006Z,-9.70
2018-03-02T06:35:02.165Z,-9.50
2018-03-02T06:37:30.313Z,-9.70
2018-03-02T06:39:58.506Z,-9.60
2018-03-02T06:42:26.650Z,-9.00
2018-03-02T06:44:54.797Z,-9.20
2018-03-02T06:47:22.966Z,-9.10
2018-03-02T06:49:51.109Z,-9.00
2018-03-02T06:52:19.255Z,-8.60
2018-03-02T06:54:47.441Z,-8.90
2018-03-02T06:57:15.578Z,-9.20
2018-03-02T06:59:44.498Z,-8.80
2018-03-02T07:02:12.640Z,-8.60
2018-03-02T07:04:41.671Z,-8.90
2018-03-02T07:07:09.831Z,-8.60
2018-03-02T07:09:38.001Z,-8.60
2018-03-02T07:12:06.137Z,-8.90
2018-03-02T07:14:35.053Z,-8.80
2018-03-02T07:17:03.246Z,-8.50
2018-03-02T07:19:31.421Z,-8.50
2018-03-02T07:21:59.570Z,-7.90
2018-03-02T07:24:27.746Z,-7.60
2018-03-02T07:26:55.892Z,-7.70
2018-03-02T07:29:24.856Z,-8.10
2018-03-02T07:31:52.987Z,-7.90
2018-03-02T07:34:21.129Z,-7.90
2018-03-02T07:36:50.062Z,-7.80
2018-03-02T07:39:18.214Z,-7.80
2018-03-02T07:41:46.377Z,-7.40
2018-03-02T07:44:15.300Z,-7.20
2018-03-02T07:46:43.466Z,-6.60
2018-03-02T07:49:11.623Z,-6.70
2018-03-02T07:51:39.797Z,-6.90
2018-03-02T07:54:07.945Z,-6.90
2018-03-02T07:56:36.865Z,-6.60
2018-03-02T07:59:05.050Z,-6.40
2018-03-02T08:01:33.189Z,-6.60
2018-03-02T08:04:02.093Z,-6.80
2018-03-02T08:06:30.257Z,-5.90
2018-03-02T08:08:59.175Z,-6.30
2018-03-02T08:11:27.318Z,-6.30
2018-03-02T08:13:56.278Z,-6.30
2018-03-02T08:16:24.425Z,-6.20
2018-03-02T08:18:52.569Z,-5.90
2018-03-02T08:21:20.729Z,-5.90
2018-03-02T08:23:49.638Z,-5.40
2018-03-02T08:26:17.928Z,-5.90
2018-03-02T08:28:46.094Z,-5.60
2018-03-02T08:31:14.233Z,-5.50
2018-03-02T08:33:43.160Z,-5.10
2018-03-02T08:36:11.302Z,-5.40
2018-03-02T08:38:40.212Z,-5.20
2018-03-02T08:41:08.394Z,-5.40
2018-03-02T08:43:36.554Z,-4.90
2018-03-02T08:46:04.739Z,-5.20
2018-03-02T08:48:32.890Z,-5.00
2018-03-02T08:51:01.046Z,-4.90
2018-03-02T08:53:30.086Z,-4.80
2018-03-02T08:55:58.227Z,-5.20
2018-03-02T08:58:26.370Z,-5.40
2018-03-02T09:00:54.538Z,-4.90
2018-03-02T09:03:22.773Z,-4.70
2018-03-02T09:05:50.917Z,-4.60
2018-03-02T09:08:19.864Z,-4.10
2018-03-02T09:10:48.770Z,-3.80
2018-03-02T09:13:16.910Z,-3.30
2018-03-02T09:15:45.179Z,-3.40
2018-03-02T09:18:13.321Z,-3.70
2018-03-02T09:20:41.462Z,-3.60
2018-03-02T09:23:09.622Z,-3.40
2018-03-02T09:25:37.766Z,-2.90
2018-03-02T09:28:05.929Z,-2.50
2018-03-02T09:30:34.113Z,-2.40
2018-03-02T09:33:02.254Z,-2.20
2018-03-02T09:35:30.454Z,-1.60
2018-03-02T09:37:58.618Z,-1.40
2018-03-02T09:40:26.801Z,-1.20
2018-03-02T09:42:55.770Z,-1.10
2018-03-02T09:45:23.909Z,-0.90
2018-03-02T09:47:52.104Z,-1.40
2018-03-02T09:50:21.015Z,-1.00
2018-03-02T09:52:49.165Z,-0.70
2018-03-02T09:55:18.093Z,-0.50
2018-03-02T09:57:46.252Z,-0.10
2018-03-02T10:00:14.700Z,-0.30
2018-03-02T10:02:43.646Z,0.00
2018-03-02T10:05:11.797Z,-0.10
2018-03-02T10:07:39.955Z,0.10
2018-03-02T10:10:08.087Z,0.40
2018-03-02T10:12:36.228Z,0.40
2018-03-02T10:15:04.382Z,0.30
2018-03-02T10:17:32.698Z,0.90
2018-03-02T10:20:01.004Z,1.20
2018-03-02T10:22:30.030Z,0.90
2018-03-02T10:24:58.211Z,1.20
2018-03-02T10:27:26.445Z,1.60
2018-03-02T10:29:55.353Z,1.70
2018-03-02T10:32:23.506Z,1.40
2018-03-02T10:34:52.442Z,1.70
2018-03-02T10:37:20.584Z,1.90
2018-03-02T10:39:48.749Z,2.30
2018-03-02T10:42:18.478Z,2.60
2018-03-02T10:44:46.646Z,2.90
2018-03-02T10:47:14.785Z,2.50
2018-03-02T10:49:42.923Z,2.90
2018-03-02T10:52:11.593Z,3.20
2018-03-02T10:54:39.737Z,3.60
2018-03-02T10:57:07.949Z,3.30
2018-03-02T10:59:36.079Z,3.60
2018-03-02T11:02:06.809Z,4.10
2018-03-02T11:04:36.642Z,4.10
2018-03-02T11:07:04.774Z,4.40
2018-03-02T11:09:32.911Z,4.40
2018-03-02T11:12:01.062Z,4.40
2018-03-02T11:14:29.192Z,4.70
2018-03-02T11:16:57.353Z,4.80
2018-03-02T11:19:25.587Z,4.90
2018-03-02T11:21:53.726Z,5.40
2018-03-02T11:24:22.651Z,6.00
2018-03-02T11:26:50.790Z,5.50
2018-03-02T11:29:19.713Z,4.40
2018-03-02T11:31:47.886Z,4.60
2018-03-02T11:34:16.026Z,4.60
2018-03-02T11:36:44.934Z,4.50
2018-03-02T11:39:13.082Z,4.00
2018-03-02T11:41:41.982Z,4.60
2018-03-02T11:44:10.182Z,5.20
2018-03-02T11:46:38.330Z,5.90
2018-03-02T11:49:06.477Z,6.40
2018-03-02T11:51:35.499Z,7.00
2018-03-02T11:54:03.696Z,7.10
2018-03-02T11:56:31.847Z,7.70
2018-03-02T11:59:00.001Z,7.50
2018-03-02T12:01:29.342Z,7.90
2018-03-02T12:03:57.469Z,9.00
2018-03-02T12:06:26.400Z,9.60
2018-03-02T12:08:54.582Z,9.00
2018-03-02T12:11:22.870Z,8.40
2018-03-02T12:13:51.027Z,8.10
2018-03-02T12:16:19.183Z,8.70
2018-03-02T12:18:47.335Z,9.70
2018-03-02T12:21:16.260Z,10.60
2018-03-02T12:23:44.453Z,11.50
2018-03-02T12:26:12.622Z,12.60
2018-03-02T12:28:40.782Z,12.30
2018-03-02T12:31:08.973Z,14.40
2018-03-02T12:33:37.168Z,13.80
2018-03-02T12:36:05.282Z,12.80
2018-03-02T12:38:33.455Z,15.90
2018-03-02T12:41:01.596Z,16.70
2018-03-02T12:43:29.725Z,17.60
2018-03-02T12:45:57.882Z,16.40
2018-03-02T12:48:26.034Z,15.30
2018-03-02T12:50:54.169Z,18.00
2018-03-02T12:53:22.332Z,19.30
2018-03-02T12:55:50.470Z,18.40
2018-03-02T12:58:18.602Z,19.50
2018-03-02T13:00:46.770Z,20.00
2018-03-02T13:03:14.907Z,20.20
2018-03-02T13:05:43.053Z,21.30
2018-03-02T13:08:11.206Z,20.90
2018-03-02T13:10:40.117Z,20.70
2018-03-02T13:13:08.285Z,21.20
2018-03-02T13:15:36.471Z,20.50
2018-03-02T13:18:04.653Z,20.30
2018-03-02T13:20:32.807Z,21.40
2018-03-02T13:23:01.003Z,22.10
2018-03-02T13:25:29.148Z,21.20
2018-03-02T13:28:15.380Z,20.20
2018-03-02T13:30:43.522Z,19.40
2018-03-02T13:36:22.665Z,20.20
2018-03-02T13:38:51.642Z,22.50
2018-03-02T13:41:38.485Z,21.90
2018-03-02T13:44:06.642Z,21.40
2018-03-02T13:46:34.829Z,19.20
2018-03-02T13:49:20.843Z,20.30
2018-03-02T13:51:48.991Z,20.00
2018-03-02T13:54:17.157Z,22.20
2018-03-02T13:57:03.247Z,22.50
2018-03-02T13:59:31.410Z,21.70
2018-03-02T14:01:59.555Z,22.40
2018-03-02T14:04:43.403Z,21.70
2018-03-02T14:07:12.385Z,23.00
2018-03-02T14:09:40.623Z,22.70
2018-03-02T14:12:08.885Z,21.60
2018-03-02T14:14:37.022Z,22.80
2018-03-02T14:17:05.918Z,22.40
2018-03-02T14:19:34.852Z,21.30
2018-03-02T14:22:02.985Z,21.40
2018-03-02T14:24:31.121Z,22.60
2018-03-02T14:27:00.121Z,21.30
2018-03-02T14:29:28.258Z,21.30
2018-03-02T14:31:56.406Z,21.80
2018-03-02T14:34:24.538Z,22.30
2018-03-02T14:36:52.904Z,22.00
2018-03-02T14:39:21.050Z,19.50
2018-03-02T14:41:49.495Z,18.80
2018-03-02T14:44:28.991Z,18.60
2018-03-02T14:46:57.145Z,20.30
2018-03-02T14:49:25.309Z,20.70
2018-03-02T14:51:53.478Z,19.50
2018-03-02T14:54:22.485Z,19.40
2018-03-02T14:56:50.623Z,18.10
2018-03-02T14:59:18.795Z,18.50
2018-03-02T15:01:46.930Z,20.00
2018-03-02T15:04:15.158Z,19.30
2018-03-02T15:06:43.309Z,17.50
2018-03-02T15:09:12.042Z,18.40
2018-03-02T15:11:40.202Z,17.00
2018-03-02T15:14:08.333Z,17.30
2018-03-02T15:16:37.250Z,17.00
2018-03-02T15:19:05.407Z,15.40
2018-03-02T15:21:34.126Z,13.50
2018-03-02T15:24:02.306Z,12.80
2018-03-02T15:26:30.433Z,13.90
2018-03-02T15:28:58.566Z,13.40
2018-03-02T15:31:26.718Z,14.90
2018-03-02T15:33:54.862Z,14.40
2018-03-02T15:36:23.043Z,15.30
2018-03-02T15:41:49.225Z,14.60
2018-03-02T15:44:17.378Z,13.90
2018-03-02T15:46:45.517Z,14.20
2018-03-02T15:49:13.653Z,12.60
2018-03-02T15:51:41.989Z,11.70
2018-03-02T15:54:10.125Z,11.40
2018-03-02T15:56:39.033Z,10.10
2018-03-02T15:59:07.192Z,9.70
2018-03-02T16:01:35.322Z,9.20
2018-03-02T16:04:03.463Z,9.00
2018-03-02T16:06:31.652Z,7.00
2018-03-02T16:08:59.803Z,5.80
2018-03-02T16:11:27.937Z,5.60
2018-03-02T16:13:58.082Z,5.00
2018-03-02T16:16:26.210Z,4.70
2018-03-02T16:18:54.347Z,4.10
2018-03-02T16:21:22.486Z,3.40
2018-03-02T16:23:51.422Z,1.10
2018-03-02T16:26:19.549Z,1.40
2018-03-02T16:28:48.467Z,0.20
2018-03-02T16:31:16.657Z,-0.20
2018-03-02T16:33:45.582Z,-0.10
2018-03-02T16:36:14.153Z,-0.50
2018-03-02T16:38:42.336Z,-0.90
2018-03-02T16:41:11.251Z,-1.00
2018-03-02T16:43:39.433Z,-1.20
2018-03-02T16:46:07.606Z,-1.20
2018-03-02T16:48:35.741Z,-1.90
2018-03-02T16:51:03.881Z,-2.10
2018-03-02T16:53:32.078Z,-1.80
2018-03-02T16:56:00.521Z,-2.40
2018-03-02T16:58:28.667Z,-2.20
2018-03-02T17:00:56.837Z,-2.30
2018-03-02T17:03:25.741Z,-2.50
2018-03-02T17:05:53.878Z,-2.90
2018-03-02T17:08:22.050Z,-2.80
2018-03-02T17:10:50.962Z,-2.60
2018-03-02T17:13:19.886Z,-2.80
2018-03-02T17:15:48.066Z,-3.20
2018-03-02T17:18:16.207Z,-3.10
2018-03-02T17:20:44.342Z,-3.10
2018-03-02T17:23:12.513Z,-3.00
2018-03-02T17:25:40.807Z,-3.40
2018-03-02T17:28:09.710Z,-3.40
2018-03-02T17:30:37.926Z,-3.40
2018-03-02T17:33:06.074Z,-3.30
2018-03-02T17:35:34.358Z,-3.40
2018-03-02T17:38:02.509Z,-3.50
2018-03-02T17:40:30.650Z,-3.20
2018-03-02T17:42:58.857Z,-3.10
2018-03-02T17:45:26.993Z,-3.40
2018-03-02T17:47:55.234Z,-3.20
2018-03-02T17:50:23.370Z,-3.60
2018-03-02T17:52:51.521Z,-3.50
2018-03-02T17:55:19.682Z,-3.40
2018-03-02T17:57:47.825Z,-3.60
2018-03-02T18:00:15.973Z,-3.70
2018-03-02T18:02:44.125Z,-3.70
2018-03-02T18:05:13.363Z,-3.70
2018-03-02T18:07:41.626Z,-4.00
2018-03-02T18:10:09.806Z,-4.00
2018-03-02T18:12:37.957Z,-3.60
2018-03-02T18:15:06.102Z,-3.80
2018-03-02T18:17:35.049Z,-4.00
2018-03-02T18:20:03.190Z,-3.50
2018-03-02T18:22:31.560Z,-3.70
2018-03-02T18:24:59.763Z,-3.60
2018-03-02T18:27:27.938Z,-3.60
2018-03-02T18:29:56.088Z,-3.40
2018-03-02T18:32:24.270Z,-3.60
2018-03-02T18:34:52.869Z,-4.00
2018-03-02T18:37:21.008Z,-3.80
2018-03-02T18:39:49.184Z,-3.80
2018-03-02T18:42:18.044Z,-3.90
2018-03-02T18:44:46.578Z,-3.90
2018-03-02T18:47:14.774Z,-4.00
2018-03-02T18:49:42.918Z,-3.80
2018-03-02T18:52:11.060Z,-4.10
2018-03-02T18:54:40.010Z,-4.00
2018-03-02T18:57:08.166Z,-3.90
2018-03-02T18:59:36.309Z,-4.10
2018-03-02T19:02:04.520Z,-4.10
2018-03-02T19:04:33.514Z,-4.10
2018-03-02T19:07:01.679Z,-4.50
2018-03-02T19:09:29.910Z,-4.20
2018-03-02T19:11:58.835Z,-4.40
2018-03-02T19:14:27.010Z,-4.50
2018-03-02T19:16:55.193Z,-4.50
2018-03-02T19:19:23.342Z,-4.30
2018-03-02T19:21:51.495Z,-4.10
2018-03-02T19:24:20.438Z,-3.90
2018-03-02T19:26:48.634Z,-4.40
2018-03-02T19:29:17.652Z,-4.60
2018-03-02T19:31:45.887Z,-4.50
2018-03-02T19:34:14.161Z,-4.50
2018-03-02T19:36:42.415Z,-4.30
2018-03-02T19:39:10.704Z,-4.70
2018-03-02T19:41:38.964Z,-4.60
2018-03-02T19:44:07.230Z,-5.00
2018-03-02T19:46:35.508Z,-4.80
2018-03-02T19:49:03.743Z,-4.90
2018-03-02T19:51:32.711Z,-4.20
2018-03-02T19:54:00.949Z,-4.80
2018-03-02T19:56:29.187Z,-4.70
2018-03-02T19:58:57.420Z,-4.90
2018-03-02T20:01:25.623Z,-4.70
2018-03-02T20:03:54.627Z,-4.80
2018-03-02T20:06:23.573Z,-4.70
2018-03-02T20:08:51.786Z,-5.00
2018-03-02T20:11:21.233Z,-4.70
2018-03-02T20:13:49.435Z,-4.60
2018-03-02T20:16:17.797Z,-4.30
2018-03-02T20:18:46.517Z,-5.00
2018-03-02T20:21:15.477Z,-5.00
2018-03-02T20:23:44.251Z,-4.80
2018-03-02T20:26:12.416Z,-4.90
2018-03-02T20:28:40.590Z,-5.10
2018-03-02T20:31:08.771Z,-5.00
2018-03-02T20:33:36.913Z,-4.50
2018-03-02T20:36:05.081Z,-4.70
2018-03-02T20:38:33.999Z,-4.90
2018-03-02T20:41:02.147Z,-4.80
2018-03-02T20:43:30.342Z,-4.80
2018-03-02T20:45:58.492Z,-4.90
2018-03-02T20:48:26.690Z,-5.10
2018-03-02T20:50:54.874Z,-5.30
2018-03-02T20:53:23.037Z,-5.20
2018-03-02T20:55:51.217Z,-5.20
2018-03-02T20:58:19.413Z,-5.30
2018-03-02T21:00:47.558Z,-5.50
2018-03-02T21:03:15.732Z,-5.30
2018-03-02T21:05:43.876Z,-5.40
2018-03-02T21:08:12.082Z,-5.60
2018-03-02T21:10:40.234Z,-5.30
2018-03-02T21:13:08.426Z,-5.30
2018-03-02T21:15:36.698Z,-5.30
2018-03-02T21:18:04.852Z,-5.50
2018-03-02T21:20:32.994Z,-5.70
2018-03-02T21:23:01.936Z,-5.60
2018-03-02T21:25:30.106Z,-5.40
2018-03-02T21:27:58.262Z,-5.10
2018-03-02T21:30:26.452Z,-4.80
2018-03-02T21:32:54.610Z,-5.50
2018-03-02T21:35:22.890Z,-5.40
2018-03-02T21:37:51.087Z,-5.20
2018-03-02T21:40:19.342Z,-5.70
2018-03-02T21:42:47.496Z,-5.70
2018-03-02T21:45:16.625Z,-5.60
2018-03-02T21:47:44.792Z,-5.50
2018-03-02T21:50:12.962Z,-5.90
2018-03-02T21:52:41.129Z,-5.70
2018-03-02T21:55:09.346Z,-5.70
2018-03-02T21:57:37.586Z,-5.40
2018-03-02T22:00:05.727Z,-5.50
2018-03-02T22:02:33.875Z,-5.10
2018-03-02T22:05:02.030Z,-5.30
2018-03-02T22:07:30.173Z,-5.50
2018-03-02T22:09:58.326Z,-5.50
2018-03-02T22:12:26.521Z,-5.70
2018-03-02T22:14:54.678Z,-5.40
2018-03-02T22:17:22.881Z,-5.60
2018-03-02T22:19:51.038Z,-5.70
2018-03-02T22:22:19.190Z,-5.70
2018-03-02T22:24:47.352Z,-5.80
2018-03-02T22:27:15.506Z,-6.20
2018-03-02T22:29:44.452Z,-6.10
2018-03-02T22:32:12.599Z,-6.10
2018-03-02T22:34:40.754Z,-6.10
2018-03-02T22:37:09.709Z,-5.80
2018-03-02T22:39:37.886Z,-6.10
2018-03-02T22:42:06.018Z,-6.20
2018-03-02T22:44:34.175Z,-6.30
2018-03-02T22:47:02.318Z,-5.90
2018-03-02T22:49:30.505Z,-6.20
2018-03-02T22:51:59.422Z,-6.30
2018-03-02T22:54:27.569Z,-6.10
2018-03-02T22:56:56.493Z,-6.30
2018-03-02T22:59:24.653Z,-6.30
2018-03-02T23:01:52.798Z,-6.00
2018-03-02T23:04:21.712Z,-6.40
2018-03-02T23:06:49.864Z,-5.90
2018-03-02T23:09:18.769Z,-6.40
2018-03-02T23:11:46.997Z,-6.30
2018-03-02T23:14:15.346Z,-6.00
2018-03-02T23:16:43.548Z,-6.30
2018-03-02T23:19:11.689Z,-6.10
2018-03-02T23:21:39.872Z,-6.00
2018-03-02T23:24:08.025Z,-6.20
2018-03-02T23:26:36.175Z,-6.40
2018-03-02T23:29:05.102Z,-6.70
2018-03-02T23:31:33.251Z,-6.50
2018-03-02T23:34:01.435Z,-6.70
2018-03-02T23:36:29.610Z,-6.30
2018-03-02T23:38:57.749Z,-6.60
2018-03-02T23:41:26.671Z,-6.40
2018-03-02T23:43:54.816Z,-6.70
2018-03-02T23:46:23.734Z,-6.30
2018-03-02T23:48:51.906Z,-6.50
2018-03-02T23:51:22.302Z,-6.30
2018-03-02T23:53:50.453Z,-6.40
2018-03-02T23:56:18.678Z,-6.60
2018-03-02T23:58:46.859Z,-6.80
